Red Town, Illinois
Current Conditions -  °F | °C
As of 6:52 PM on Friday 19 Dec 2014 (Local Time) from KMDH Reporting Station
Overcast Overcast  
Wind Chill: 36°   Ceiling: 6000
Heat Index: 36°   Visibility: 10mi
Dew Point: 27°   Wind: 0mph
Humidity: 70%   Direction: NA
Pressure: 30.28"   Gusts: NA
Location:  37.6428°N, 89.4674°W
Report Text: KMDH 200052Z AUTO 00000KT 10SM OVC060 02/M03 A3028 RMK AO2 SLP258 T00221028
Loading
Personal Weather Stations






























Interactive Weather Map New forecast layout! Learn more

10-Day Weather Forecast

Advertisements
Track Severe Weather on mobile